Time;durP1;ratioP1;P1;durP2;ratioP2;P2;SDS_P1;SDS_P2;PMS_P1;PMS_P2;Temp;Humidity;BMP_temperature;BMP_pressure;BME280_temperature;BME280_humidity;BME280_pressure;Samples;Min_cycle;Max_cycle;Signal;HPM_P1;HPM_P2
2021/04/05 00:02:22;;;;;;;21.60;10.27;;;4.30;99.90;;;;;;5057221;28;20580;-80
2021/04/05 00:04:49;;;;;;;23.47;10.37;;;4.30;99.90;;;;;;5035358;28;20282;-80
2021/04/05 00:07:15;;;;;;;21.67;10.30;;;4.30;99.90;;;;;;5035535;28;20702;-80
2021/04/05 00:09:42;;;;;;;24.87;10.20;;;4.30;99.90;;;;;;5051365;28;20288;-80
2021/04/05 00:12:10;;;;;;;21.00;9.97;;;4.20;99.90;;;;;;5049526;28;20675;-79
2021/04/05 00:14:38;;;;;;;23.23;10.43;;;4.20;99.90;;;;;;5065482;28;20301;-80
2021/04/05 00:17:06;;;;;;;20.77;10.03;;;4.20;99.90;;;;;;5045410;28;20300;-80
2021/04/05 00:19:33;;;;;;;23.67;10.20;;;4.20;99.90;;;;;;5040202;28;20225;-80
2021/04/05 00:21:59;;;;;;;25.97;10.60;;;4.10;99.90;;;;;;5051034;28;20739;-79
2021/04/05 00:24:26;;;;;;;27.53;10.40;;;4.00;99.90;;;;;;5038742;28;20211;-80
2021/04/05 00:26:52;;;;;;;23.23;10.40;;;4.00;99.90;;;;;;5055312;28;20246;-79
2021/04/05 00:29:18;;;;;;;24.63;10.50;;;4.00;99.90;;;;;;5054090;28;20285;-79
2021/04/05 00:31:45;;;;;;;20.87;10.27;;;4.10;99.90;;;;;;5054906;28;20316;-80
2021/04/05 00:34:12;;;;;;;23.17;10.57;;;4.10;99.90;;;;;;5054529;28;20241;-80
2021/04/05 00:36:39;;;;;;;25.47;10.77;;;4.10;99.90;;;;;;5055017;28;20242;-79
2021/04/05 00:39:07;;;;;;;30.00;10.33;;;4.10;99.90;;;;;;5054703;28;20607;-80
2021/04/05 00:41:34;;;;;;;27.17;11.30;;;4.20;99.90;;;;;;5047443;28;20223;-79
2021/04/05 00:44:00;;;;;;;25.57;11.33;;;4.20;99.90;;;;;;5049584;28;20280;-80
2021/04/05 00:46:27;;;;;;;29.50;11.50;;;4.20;99.90;;;;;;5034307;28;20294;-80
2021/04/05 00:48:54;;;;;;;28.23;11.37;;;4.10;99.90;;;;;;5053993;28;20629;-80
2021/04/05 00:51:23;;;;;;;23.17;11.23;;;4.10;99.90;;;;;;5054422;28;20297;-79
2021/04/05 00:53:51;;;;;;;29.30;10.77;;;4.10;99.90;;;;;;5086769;28;20307;-79
2021/04/05 00:56:19;;;;;;;23.10;11.20;;;4.00;99.90;;;;;;5052826;28;20199;-79
2021/04/05 00:58:47;;;;;;;21.73;10.63;;;3.90;99.90;;;;;;5041048;28;20232;-79
2021/04/05 01:01:17;;;;;;;21.93;11.00;;;3.90;99.90;;;;;;5043206;28;20291;-80
2021/04/05 01:03:44;;;;;;;25.20;11.63;;;3.80;99.90;;;;;;5046396;28;20295;-80
2021/04/05 01:06:13;;;;;;;22.83;10.67;;;3.90;99.90;;;;;;5043203;28;20239;-79
2021/04/05 01:08:41;;;;;;;22.33;10.33;;;3.80;99.90;;;;;;5034069;28;20253;-79
2021/04/05 01:11:09;;;;;;;26.73;12.17;;;3.80;99.90;;;;;;5034760;28;20292;-79
2021/04/05 01:13:35;;;;;;;26.00;10.47;;;3.90;99.90;;;;;;5047938;28;20320;-80
2021/04/05 01:16:02;;;;;;;26.17;11.33;;;3.90;99.90;;;;;;5040106;28;20297;-79
2021/04/05 01:18:30;;;;;;;28.60;11.17;;;3.90;99.90;;;;;;5044284;28;20238;-79
2021/04/05 01:20:57;;;;;;;27.97;11.40;;;3.90;99.90;;;;;;5042663;28;20219;-79
2021/04/05 01:23:25;;;;;;;26.70;12.03;;;3.90;99.90;;;;;;5056901;28;20638;-79
2021/04/05 01:25:51;;;;;;;27.40;10.77;;;3.90;99.90;;;;;;5073684;28;20233;-79
2021/04/05 01:28:18;;;;;;;27.67;11.83;;;3.90;99.90;;;;;;5059148;28;20286;-79
2021/04/05 01:30:47;;;;;;;28.83;12.07;;;3.90;99.90;;;;;;5035455;28;20235;-80
2021/04/05 01:33:18;;;;;;;26.97;10.90;;;3.90;99.90;;;;;;5036242;28;20317;-79
2021/04/05 01:35:47;;;;;;;24.37;10.53;;;3.90;99.90;;;;;;5036540;28;20288;-80
2021/04/05 01:38:15;;;;;;;19.37;9.77;;;3.90;99.90;;;;;;5046754;28;20287;-79
2021/04/05 01:40:46;;;;;;;26.13;9.93;;;3.80;99.90;;;;;;5042767;28;20294;-79
2021/04/05 01:43:12;;;;;;;22.87;9.60;;;3.70;99.90;;;;;;5053797;28;20254;-80
2021/04/05 01:45:40;;;;;;;23.93;10.13;;;3.60;99.90;;;;;;5053255;28;20290;-79
2021/04/05 01:48:08;;;;;;;26.47;10.03;;;3.60;99.90;;;;;;5053550;28;20235;-79
2021/04/05 01:50:35;;;;;;;24.57;10.33;;;3.60;99.90;;;;;;5053786;28;20289;-79
2021/04/05 01:53:05;;;;;;;22.73;10.13;;;3.60;99.90;;;;;;5053538;28;20310;-80
2021/04/05 01:55:32;;;;;;;25.00;10.47;;;3.60;99.90;;;;;;5053150;28;20219;-79
2021/04/05 01:58:00;;;;;;;22.50;10.47;;;3.60;99.90;;;;;;5048641;28;20318;-79
2021/04/05 02:00:29;;;;;;;19.60;9.53;;;3.60;99.90;;;;;;5053243;28;20291;-79
2021/04/05 02:02:56;;;;;;;26.03;10.23;;;3.60;99.90;;;;;;5062484;28;20241;-79
2021/04/05 02:05:26;;;;;;;24.50;9.90;;;3.70;99.90;;;;;;5052824;28;20236;-79
2021/04/05 02:07:52;;;;;;;25.00;10.33;;;3.70;99.90;;;;;;5043430;28;20641;-77
2021/04/05 02:10:22;;;;;;;21.93;10.20;;;3.70;99.90;;;;;;5042178;28;20330;-79
2021/04/05 02:12:49;;;;;;;24.30;10.00;;;3.60;99.90;;;;;;5051820;28;20243;-79
2021/04/05 02:15:17;;;;;;;26.60;10.10;;;3.50;99.90;;;;;;5050613;28;20275;-79
2021/04/05 02:17:45;;;;;;;20.07;9.83;;;3.50;99.90;;;;;;5033516;28;20310;-80
2021/04/05 02:20:15;;;;;;;19.67;10.77;;;3.40;99.90;;;;;;5032653;28;20203;-80
2021/04/05 02:22:43;;;;;;;20.10;9.87;;;3.40;99.90;;;;;;5033251;28;20200;-79
2021/04/05 02:25:13;;;;;;;20.53;9.73;;;3.50;99.90;;;;;;5032273;28;20211;-79
2021/04/05 02:27:42;;;;;;;17.60;9.60;;;3.50;99.90;;;;;;5033218;28;20288;-79
2021/04/05 02:30:10;;;;;;;20.00;10.17;;;3.50;99.90;;;;;;5037090;28;20237;-79
2021/04/05 02:32:39;;;;;;;24.13;10.03;;;3.40;99.90;;;;;;5045006;28;20263;-79
2021/04/05 02:35:07;;;;;;;23.97;9.37;;;3.40;99.90;;;;;;5041688;28;20214;-79
2021/04/05 02:37:34;;;;;;;24.93;9.87;;;3.40;99.90;;;;;;5053100;28;20299;-79
2021/04/05 02:40:01;;;;;;;21.63;9.70;;;3.40;99.90;;;;;;5052166;28;20290;-79
2021/04/05 02:42:28;;;;;;;21.37;9.83;;;3.40;99.90;;;;;;5052407;28;20290;-79
2021/04/05 02:44:56;;;;;;;18.47;10.17;;;3.40;99.90;;;;;;5040351;28;20291;-79
2021/04/05 02:47:24;;;;;;;18.83;9.87;;;3.40;99.90;;;;;;5032728;28;20196;-77
2021/04/05 02:49:51;;;;;;;22.33;10.17;;;3.40;99.90;;;;;;5036529;28;20333;-77
2021/04/05 02:52:18;;;;;;;27.40;10.50;;;3.50;99.90;;;;;;5036135;28;20737;-77
2021/04/05 02:54:46;;;;;;;20.77;10.43;;;3.60;99.90;;;;;;5037114;28;20306;-77
2021/04/05 02:57:14;;;;;;;23.07;10.10;;;3.50;99.90;;;;;;5071483;28;20206;-78
2021/04/05 02:59:40;;;;;;;22.90;10.73;;;3.50;99.90;;;;;;5072616;28;20195;-79
2021/04/05 03:02:07;;;;;;;21.43;10.50;;;3.60;99.90;;;;;;5072323;28;20241;-79
2021/04/05 03:04:34;;;;;;;26.70;11.57;;;3.80;99.90;;;;;;5040194;28;20281;-79
2021/04/05 03:07:02;;;;;;;26.80;11.30;;;3.90;99.90;;;;;;5041493;28;20290;-77
2021/04/05 03:09:28;;;;;;;26.47;11.30;;;4.10;99.90;;;;;;5051519;28;20282;-77
2021/04/05 03:11:57;;;;;;;24.80;11.00;;;4.20;99.90;;;;;;5045994;28;20742;-80
2021/04/05 03:14:25;;;;;;;24.20;12.07;;;4.30;99.90;;;;;;5033226;28;20226;-79
2021/04/05 03:16:53;;;;;;;25.03;11.43;;;4.40;99.90;;;;;;5045473;28;20554;-79
2021/04/05 03:19:22;;;;;;;28.57;13.10;;;4.50;99.90;;;;;;5042960;28;20292;-79
2021/04/05 03:21:48;;;;;;;27.23;11.77;;;4.60;99.90;;;;;;5043995;28;20296;-79
2021/04/05 03:24:16;;;;;;;23.80;11.90;;;4.70;99.90;;;;;;5031914;28;20243;-79
2021/04/05 03:26:43;;;;;;;23.97;12.63;;;4.70;99.90;;;;;;5031408;28;20208;-79
2021/04/05 03:29:13;;;;;;;26.70;13.00;;;4.80;99.90;;;;;;5038388;28;20752;-79
2021/04/05 03:31:41;;;;;;;22.90;11.70;;;4.80;99.90;;;;;;5040265;28;20228;-79
2021/04/05 03:34:13;;;;;;;29.57;11.53;;;4.80;99.90;;;;;;5046250;28;20255;-80
2021/04/05 03:36:44;;;;;;;22.40;11.40;;;4.80;99.90;;;;;;5051073;28;20666;-79
2021/04/05 03:39:12;;;;;;;25.50;11.97;;;4.80;99.90;;;;;;5034143;28;20640;-80
2021/04/05 03:41:48;;;;;;;27.10;11.60;;;4.80;99.90;;;;;;5035257;28;20283;-80
2021/04/05 03:44:26;;;;;;;25.03;11.83;;;4.80;99.90;;;;;;5034059;28;20283;-79
2021/04/05 03:46:56;;;;;;;27.03;12.13;;;4.70;99.90;;;;;;5046339;28;20208;-80
2021/04/05 03:49:29;;;;;;;24.03;11.90;;;4.60;99.90;;;;;;5039732;28;20719;-80
2021/04/05 03:52:02;;;;;;;30.20;12.50;;;4.50;99.90;;;;;;5055730;28;20341;-79
2021/04/05 03:54:36;;;;;;;28.07;11.67;;;4.30;99.90;;;;;;5037449;28;20307;-79
2021/04/05 03:57:05;;;;;;;23.90;11.20;;;4.20;99.90;;;;;;5046328;28;20262;-79
2021/04/05 03:59:37;;;;;;;23.93;10.83;;;4.10;99.90;;;;;;5044247;28;20790;-79
2021/04/05 04:02:07;;;;;;;20.43;10.03;;;4.10;99.90;;;;;;5051126;28;20215;-79
2021/04/05 04:04:39;;;;;;;24.03;11.90;;;4.00;99.90;;;;;;5055949;28;20284;-79
2021/04/05 04:07:13;;;;;;;23.03;11.37;;;4.00;99.90;;;;;;5055282;28;20200;-79
2021/04/05 04:09:40;;;;;;;20.67;11.37;;;4.10;99.90;;;;;;5055442;28;20690;-79
2021/04/05 04:12:13;;;;;;;23.77;12.37;;;4.30;99.90;;;;;;5055015;28;20263;-78
2021/04/05 04:14:41;;;;;;;22.30;12.70;;;4.40;99.90;;;;;;5039705;28;20227;-79
2021/04/05 04:17:08;;;;;;;27.93;12.97;;;4.50;99.90;;;;;;5048489;28;20625;-79
2021/04/05 04:19:36;;;;;;;24.23;12.73;;;4.70;99.90;;;;;;5055734;28;20239;-79
2021/04/05 04:22:04;;;;;;;28.67;12.60;;;4.80;99.90;;;;;;5049693;28;20210;-79
2021/04/05 04:24:32;;;;;;;28.63;12.67;;;4.90;99.90;;;;;;5038983;28;20738;-79
2021/04/05 04:26:59;;;;;;;30.63;13.10;;;5.00;99.90;;;;;;5055134;28;20244;-79
2021/04/05 04:29:27;;;;;;;28.57;13.37;;;5.00;99.90;;;;;;5051425;28;20280;-79
2021/04/05 04:31:54;;;;;;;27.30;13.10;;;5.10;99.90;;;;;;5051244;28;20679;-79
2021/04/05 04:34:21;;;;;;;27.43;13.47;;;5.00;99.90;;;;;;5053205;28;20224;-79
2021/04/05 04:36:49;;;;;;;28.80;13.53;;;5.00;99.90;;;;;;5054373;28;20359;-79
2021/04/05 04:39:16;;;;;;;24.07;12.43;;;5.00;99.90;;;;;;5054842;28;20251;-79
2021/04/05 04:41:45;;;;;;;22.93;11.90;;;5.00;99.90;;;;;;5054682;28;20300;-79
2021/04/05 04:44:12;;;;;;;23.90;12.00;;;5.10;99.90;;;;;;5036844;28;20229;-80
2021/04/05 04:46:40;;;;;;;19.40;11.57;;;5.10;99.90;;;;;;5035244;28;20305;-79
2021/04/05 04:49:09;;;;;;;20.33;12.10;;;5.10;99.90;;;;;;5049823;28;20287;-79
2021/04/05 04:51:37;;;;;;;25.47;12.50;;;5.10;99.90;;;;;;5054724;28;20284;-79
2021/04/05 04:54:06;;;;;;;23.77;12.30;;;5.10;99.90;;;;;;5045391;28;20316;-79
2021/04/05 04:56:33;;;;;;;27.33;12.53;;;5.10;99.90;;;;;;5053990;28;20284;-79
2021/04/05 04:59:00;;;;;;;26.97;12.57;;;5.10;99.90;;;;;;5053615;28;20211;-79
2021/04/05 05:01:30;;;;;;;24.67;11.60;;;5.10;99.90;;;;;;5053088;28;20197;-79
2021/04/05 05:03:59;;;;;;;22.37;11.77;;;5.10;99.90;;;;;;5034193;28;20240;-79
2021/04/05 05:06:27;;;;;;;23.93;11.40;;;5.10;99.90;;;;;;5034440;28;20750;-79
2021/04/05 05:08:55;;;;;;;25.60;11.63;;;5.00;99.90;;;;;;5034487;28;20298;-78
2021/04/05 05:11:22;;;;;;;22.37;11.70;;;5.00;99.90;;;;;;5034921;28;20233;-79
2021/04/05 05:13:49;;;;;;;23.13;11.97;;;4.90;99.90;;;;;;5053095;28;20316;-79
2021/04/05 05:16:16;;;;;;;21.80;11.70;;;4.80;99.90;;;;;;5051137;28;20304;-79
2021/04/05 05:18:42;;;;;;;26.47;11.90;;;4.70;99.90;;;;;;5049474;28;20295;-79
2021/04/05 05:21:18;;;;;;;27.53;12.40;;;4.60;99.90;;;;;;5051905;28;20201;-79
2021/04/05 05:23:45;;;;;;;28.93;11.90;;;4.60;99.90;;;;;;5053120;28;20685;-79
2021/04/05 05:26:13;;;;;;;27.17;11.87;;;4.60;99.90;;;;;;5054194;28;20291;-79
2021/04/05 05:28:40;;;;;;;25.20;12.30;;;4.50;99.90;;;;;;5046933;28;20744;-79
2021/04/05 05:31:07;;;;;;;25.93;12.17;;;4.50;99.90;;;;;;5041611;28;20227;-79
2021/04/05 05:33:35;;;;;;;27.13;12.57;;;4.50;99.90;;;;;;5033728;28;20314;-79
2021/04/05 05:36:02;;;;;;;26.43;12.50;;;4.50;99.90;;;;;;5033624;28;20572;-79
2021/04/05 05:38:30;;;;;;;28.30;13.20;;;4.60;99.90;;;;;;5033679;28;20760;-79
2021/04/05 05:41:06;;;;;;;29.37;12.97;;;4.70;99.90;;;;;;5063223;28;20686;-78
2021/04/05 05:43:38;;;;;;;29.00;12.73;;;4.70;99.90;;;;;;5066064;28;20277;-79
2021/04/05 05:46:16;;;;;;;32.67;13.50;;;4.70;99.90;;;;;;5033727;28;20230;-79
2021/04/05 05:49:00;;;;;;;28.37;12.77;;;4.70;99.90;;;;;;5042112;28;20235;-79
2021/04/05 05:51:40;;;;;;;31.60;13.00;;;4.60;99.90;;;;;;5053088;28;20215;-77
2021/04/05 05:54:23;;;;;;;29.13;12.50;;;4.60;99.90;;;;;;5053406;28;20318;-79
2021/04/05 05:56:55;;;;;;;30.67;13.70;;;4.60;99.90;;;;;;5052867;28;20291;-79
2021/04/05 05:59:32;;;;;;;21.87;12.50;;;4.70;99.90;;;;;;5053573;28;20288;-79
2021/04/05 06:02:06;;;;;;;26.83;13.10;;;4.80;99.90;;;;;;5038311;28;20204;-79
2021/04/05 06:04:57;;;;;;;29.03;13.37;;;4.80;99.90;;;;;;5041425;28;20576;-79
2021/04/05 06:07:32;;;;;;;26.17;12.30;;;4.80;99.90;;;;;;5073748;28;20215;-78
2021/04/05 06:10:07;;;;;;;30.67;13.33;;;4.90;99.90;;;;;;5049143;28;20717;-79
2021/04/05 06:12:44;;;;;;;30.97;13.17;;;4.90;99.90;;;;;;5038898;28;20307;-79
2021/04/05 06:15:16;;;;;;;28.53;13.63;;;5.00;99.90;;;;;;5052649;28;20378;-79
2021/04/05 06:17:55;;;;;;;29.20;13.80;;;5.10;99.90;;;;;;5045944;28;20212;-78
2021/04/05 06:20:26;;;;;;;30.23;14.03;;;5.20;99.90;;;;;;5032972;28;20751;-78
2021/04/05 06:23:06;;;;;;;25.00;13.23;;;5.30;99.90;;;;;;5032856;28;20283;-78
2021/04/05 06:25:47;;;;;;;27.47;13.77;;;5.40;99.90;;;;;;5032971;28;20898;-78
2021/04/05 06:28:22;;;;;;;26.80;13.47;;;5.50;99.90;;;;;;5036678;28;20198;-78
2021/04/05 06:30:59;;;;;;;26.77;13.17;;;5.60;99.90;;;;;;5046567;28;20201;-78
2021/04/05 06:33:32;;;;;;;22.63;13.70;;;5.70;99.90;;;;;;5032738;28;20586;-78
2021/04/05 06:36:15;;;;;;;29.37;13.57;;;5.80;99.90;;;;;;5047435;28;20289;-78
2021/04/05 06:38:45;;;;;;;28.83;13.33;;;5.90;99.90;;;;;;5039401;28;20284;-79
2021/04/05 06:41:36;;;;;;;26.70;13.23;;;6.00;99.90;;;;;;5032738;28;20294;-78
2021/04/05 06:44:27;;;;;;;29.93;13.20;;;6.00;99.90;;;;;;5044683;28;20279;-79
2021/04/05 06:47:28;;;;;;;28.20;13.03;;;6.10;99.90;;;;;;5072360;28;20293;-79
2021/04/05 06:50:14;;;;;;;29.37;13.03;;;6.10;99.90;;;;;;5047663;28;20302;-78
2021/04/05 06:53:01;;;;;;;27.20;13.37;;;6.20;99.90;;;;;;5046655;28;20663;-79
2021/04/05 06:55:40;;;;;;;29.17;14.27;;;6.30;99.90;;;;;;5032368;28;20195;-78
2021/04/05 06:58:17;;;;;;;28.20;13.10;;;6.40;99.90;;;;;;5046176;28;20208;-80
2021/04/05 07:01:00;;;;;;;24.00;13.23;;;6.40;99.90;;;;;;5041192;28;20569;-80
2021/04/05 07:04:02;;;;;;;29.07;13.70;;;6.50;99.90;;;;;;5036486;28;20675;-80
2021/04/05 07:06:39;;;;;;;29.40;14.03;;;6.60;99.90;;;;;;5026106;28;20207;-81
2021/04/05 07:09:16;;;;;;;26.73;13.03;;;6.70;99.90;;;;;;5031367;28;20617;-80
2021/04/05 07:11:54;;;;;;;26.77;13.63;;;6.90;99.90;;;;;;5035182;28;20278;-80
2021/04/05 07:14:37;;;;;;;23.23;13.33;;;7.00;99.90;;;;;;5031911;28;20224;-81
2021/04/05 07:17:13;;;;;;;28.00;13.83;;;7.20;99.90;;;;;;5037319;28;20294;-79
2021/04/05 07:19:58;;;;;;;24.40;12.87;;;7.40;99.90;;;;;;5041025;28;20268;-76
2021/04/05 07:22:53;;;;;;;24.87;13.33;;;7.70;99.90;;;;;;5031565;28;20205;-77
2021/04/05 07:25:25;;;;;;;22.23;12.90;;;7.80;99.90;;;;;;5032894;28;20268;-77
2021/04/05 07:28:02;;;;;;;27.80;13.60;;;7.90;99.90;;;;;;5032167;28;20215;-77
2021/04/05 07:30:37;;;;;;;24.47;13.57;;;7.90;99.90;;;;;;5032269;28;20228;-77
2021/04/05 07:33:20;;;;;;;27.80;13.83;;;7.90;99.90;;;;;;5033377;28;20225;-77
2021/04/05 07:35:58;;;;;;;26.87;13.13;;;8.00;99.90;;;;;;5030525;28;20652;-76
2021/04/05 07:38:35;;;;;;;23.87;13.13;;;8.20;99.90;;;;;;5053063;28;20199;-76
2021/04/05 07:41:07;;;;;;;31.30;13.37;;;8.20;99.90;;;;;;5044012;28;20215;-76
2021/04/05 07:43:43;;;;;;;24.23;12.93;;;8.20;99.90;;;;;;5039150;28;20705;-76
2021/04/05 07:46:35;;;;;;;22.63;12.23;;;8.30;99.90;;;;;;5051064;28;20596;-77
2021/04/05 07:49:12;;;;;;;22.33;12.17;;;8.20;99.90;;;;;;5040905;28;20264;-77
2021/04/05 07:52:04;;;;;;;25.10;12.23;;;8.20;99.90;;;;;;5051204;28;20243;-77
2021/04/05 07:54:34;;;;;;;22.50;12.17;;;8.20;99.90;;;;;;5032207;28;20225;-77
2021/04/05 07:57:10;;;;;;;24.27;11.90;;;8.20;99.90;;;;;;5041789;28;20299;-77
2021/04/05 07:59:49;;;;;;;23.23;12.80;;;8.20;99.90;;;;;;5031246;28;20231;-77
2021/04/05 08:02:30;;;;;;;25.23;11.60;;;8.20;99.90;;;;;;5039004;28;20698;-76
2021/04/05 08:05:14;;;;;;;24.40;12.27;;;8.30;99.90;;;;;;5043607;28;20208;-80
2021/04/05 08:08:06;;;;;;;23.70;12.07;;;8.40;99.90;;;;;;5033406;28;20239;-77
2021/04/05 08:10:44;;;;;;;22.47;11.23;;;8.40;99.90;;;;;;5059272;28;20196;-79
2021/04/05 08:13:22;;;;;;;25.60;11.60;;;8.40;99.90;;;;;;5040192;28;20307;-78
2021/04/05 08:16:00;;;;;;;23.10;11.97;;;8.40;99.90;;;;;;5049904;28;20209;-77
2021/04/05 08:18:37;;;;;;;23.63;11.50;;;8.40;99.90;;;;;;5051262;28;20841;-77
2021/04/05 08:21:10;;;;;;;22.13;11.73;;;8.50;99.90;;;;;;5036530;28;20326;-78
2021/04/05 08:23:54;;;;;;;23.97;12.60;;;8.60;99.90;;;;;;5036376;28;20199;-78
2021/04/05 08:26:30;;;;;;;24.43;11.30;;;8.80;99.90;;;;;;5043080;28;20206;-78
2021/04/05 08:29:04;;;;;;;19.20;11.87;;;8.80;99.90;;;;;;5036689;28;20287;-78
2021/04/05 08:31:50;;;;;;;24.03;12.17;;;8.90;99.90;;;;;;5033493;28;20311;-80
2021/04/05 08:34:34;;;;;;;24.25;13.00;;;9.00;99.90;;;;;;5040906;28;20481;-79
2021/04/05 08:37:11;;;;;;;22.50;12.20;;;9.00;99.90;;;;;;5039973;28;20954;-79
2021/04/05 08:39:44;;;;;;;21.80;12.00;;;9.00;99.90;;;;;;5049648;28;20241;-79
2021/04/05 08:42:19;;;;;;;25.80;12.57;;;9.20;99.90;;;;;;5054007;28;20273;-79
2021/04/05 08:44:53;;;;;;;18.90;11.70;;;9.20;99.90;;;;;;5057343;28;20292;-79
2021/04/05 08:47:24;;;;;;;22.27;12.30;;;9.10;99.90;;;;;;5054450;28;20281;-79
2021/04/05 08:49:54;;;;;;;29.17;13.27;;;9.10;99.90;;;;;;5054529;28;20298;-79
2021/04/05 08:52:24;;;;;;;22.10;12.37;;;9.10;99.90;;;;;;5054480;28;20291;-78
2021/04/05 08:54:52;;;;;;;28.30;12.73;;;9.10;99.90;;;;;;5054629;28;20281;-78
2021/04/05 08:57:22;;;;;;;29.03;13.33;;;9.30;99.90;;;;;;5054133;28;20743;-79
2021/04/05 08:59:58;;;;;;;20.17;12.53;;;9.80;99.90;;;;;;5038409;28;20328;-79
2021/04/05 09:02:30;;;;;;;21.50;13.20;;;10.20;99.90;;;;;;5060406;28;20289;-79
2021/04/05 09:04:58;;;;;;;24.43;12.73;;;10.40;99.90;;;;;;5060139;28;20226;-79
2021/04/05 09:07:39;;;;;;;21.43;10.70;;;10.50;99.90;;;;;;5048140;28;20282;-79
2021/04/05 09:10:08;;;;;;;21.13;12.00;;;10.30;99.90;;;;;;5050279;28;20227;-79
2021/04/05 09:12:36;;;;;;;21.97;11.83;;;10.70;99.90;;;;;;5040081;28;20251;-79
2021/04/05 09:15:26;;;;;;;21.17;11.40;;;10.80;99.90;;;;;;5034511;28;20315;-75
2021/04/05 09:18:15;;;;;;;16.83;11.07;;;11.30;99.90;;;;;;5045898;28;20292;-78
2021/04/05 09:21:08;;;;;;;21.47;10.57;;;11.60;99.90;;;;;;5045628;28;20226;-79
2021/04/05 09:24:05;;;;;;;18.17;10.00;;;11.70;99.90;;;;;;5073245;28;20289;-79
2021/04/05 09:26:54;;;;;;;20.90;10.40;;;12.20;99.90;;;;;;5048964;28;20760;-80
2021/04/05 09:29:39;;;;;;;17.47;10.63;;;12.40;99.90;;;;;;5043657;28;20286;-78
2021/04/05 09:32:31;;;;;;;14.77;9.17;;;12.40;99.90;;;;;;5039650;28;20231;-79
2021/04/05 09:35:27;;;;;;;15.97;9.53;;;12.50;99.90;;;;;;5050445;28;20234;-80
2021/04/05 09:38:12;;;;;;;15.93;9.23;;;13.00;99.90;;;;;;5043425;28;20283;-79
2021/04/05 09:41:04;;;;;;;17.23;9.77;;;13.20;99.90;;;;;;5050259;28;20214;-79
2021/04/05 09:44:03;;;;;;;17.43;9.67;;;13.00;99.90;;;;;;5041475;28;20247;-79
2021/04/05 09:46:58;;;;;;;15.67;9.60;;;12.80;99.90;;;;;;5003890;28;20300;-79
2021/04/05 09:49:36;;;;;;;15.20;9.63;;;12.60;99.90;;;;;;5006677;28;20228;-79
2021/04/05 09:52:34;;;;;;;17.07;9.60;;;12.70;99.90;;;;;;5005139;28;20208;-79
2021/04/05 09:55:05;;;;;;;18.47;9.27;;;12.90;99.90;;;;;;5009248;28;20221;-79
2021/04/05 09:57:36;;;;;;;18.00;10.03;;;13.00;99.90;;;;;;5004213;28;20820;-79
2021/04/05 10:00:11;;;;;;;16.13;9.87;;;12.90;99.90;;;;;;5006066;28;20236;-79
2021/04/05 10:02:45;;;;;;;21.93;9.83;;;12.90;99.90;;;;;;5010819;28;20424;-79
2021/04/05 10:05:13;;;;;;;18.63;11.40;;;12.90;99.90;;;;;;5007463;28;20280;-79
2021/04/05 10:07:42;;;;;;;16.10;10.07;;;12.80;99.90;;;;;;4997265;28;20198;-79
2021/04/05 10:10:13;;;;;;;15.57;7.80;;;12.60;99.90;;;;;;4999308;28;20233;-80
2021/04/05 10:12:41;;;;;;;15.53;8.70;;;12.00;99.90;;;;;;5010773;28;20295;-81
2021/04/05 10:15:12;;;;;;;16.13;9.10;;;12.00;99.90;;;;;;5010657;28;20304;-79
2021/04/05 10:17:45;;;;;;;16.97;8.73;;;11.80;99.90;;;;;;5011141;28;20205;-79
2021/04/05 10:20:14;;;;;;;15.00;8.17;;;11.80;99.90;;;;;;5000813;28;20279;-80
2021/04/05 10:22:43;;;;;;;18.13;11.90;;;11.90;99.90;;;;;;5010372;28;20205;-78
2021/04/05 10:25:14;;;;;;;22.60;11.17;;;11.60;99.90;;;;;;5056375;28;20202;-80
2021/04/05 10:27:42;;;;;;;17.73;9.93;;;11.40;99.90;;;;;;5037189;28;20230;-79
2021/04/05 10:30:13;;;;;;;24.93;11.80;;;11.10;99.90;;;;;;5056804;28;20246;-79
2021/04/05 10:32:40;;;;;;;17.60;9.87;;;11.00;99.90;;;;;;5041784;28;20777;-78
2021/04/05 10:35:11;;;;;;;14.33;8.47;;;10.90;99.90;;;;;;5037647;28;20224;-79
2021/04/05 10:37:42;;;;;;;15.93;7.80;;;10.70;99.90;;;;;;5062704;28;20279;-79
2021/04/05 10:40:13;;;;;;;12.27;7.30;;;10.80;99.90;;;;;;5060947;28;20230;-79
2021/04/05 10:42:47;;;;;;;14.77;7.10;;;10.90;99.90;;;;;;5050955;28;20228;-79
2021/04/05 10:45:19;;;;;;;11.63;6.23;;;11.20;99.90;;;;;;5052689;28;20767;-78
2021/04/05 10:47:53;;;;;;;10.13;6.20;;;11.40;99.90;;;;;;5050256;28;20293;-79
2021/04/05 10:50:25;;;;;;;10.97;5.27;;;11.40;99.90;;;;;;5040033;28;20288;-79
2021/04/05 10:52:53;;;;;;;9.57;5.77;;;11.40;99.90;;;;;;5046530;28;20686;-79
2021/04/05 10:55:24;;;;;;;9.57;5.50;;;11.90;99.90;;;;;;5037143;28;20312;-78
2021/04/05 10:57:54;;;;;;;12.67;5.37;;;12.30;99.90;;;;;;5032196;28;20293;-79
2021/04/05 11:00:25;;;;;;;12.17;5.03;;;12.30;99.90;;;;;;5032845;28;20697;-78
2021/04/05 11:03:03;;;;;;;8.50;4.50;;;12.20;99.90;;;;;;5043520;28;20202;-79
2021/04/05 11:05:34;;;;;;;11.13;5.13;;;11.80;99.90;;;;;;5042685;28;20208;-79
2021/04/05 11:08:05;;;;;;;10.27;5.17;;;11.70;99.90;;;;;;5052107;28;20206;-79
2021/04/05 11:10:35;;;;;;;13.97;4.97;;;11.70;99.90;;;;;;5051747;28;20230;-78
2021/04/05 11:13:06;;;;;;;12.07;5.67;;;12.00;99.90;;;;;;5047969;28;20357;-78
2021/04/05 11:15:36;;;;;;;12.73;5.33;;;12.70;99.90;;;;;;5068493;28;20272;-79
2021/04/05 11:18:04;;;;;;;8.93;5.77;;;13.00;99.90;;;;;;5052318;28;20553;-78
2021/04/05 11:20:34;;;;;;;10.37;4.70;;;12.70;99.90;;;;;;5052240;28;20252;-80
2021/04/05 11:23:06;;;;;;;8.73;4.27;;;12.00;99.90;;;;;;5053880;28;20285;-80
2021/04/05 11:25:35;;;;;;;9.23;4.97;;;12.00;99.90;;;;;;5037524;28;20192;-79
2021/04/05 11:28:09;;;;;;;9.90;4.47;;;12.50;99.90;;;;;;5048349;28;20214;-79
2021/04/05 11:30:38;;;;;;;7.30;4.30;;;12.40;99.90;;;;;;5059722;28;20209;-78
2021/04/05 11:33:08;;;;;;;7.73;3.90;;;12.60;99.90;;;;;;5037995;28;20244;-78
2021/04/05 11:35:37;;;;;;;11.97;4.70;;;11.90;99.90;;;;;;5045085;28;20343;-78
2021/04/05 11:38:07;;;;;;;7.70;4.20;;;11.60;99.90;;;;;;5045630;28;20207;-79
2021/04/05 11:40:35;;;;;;;9.80;4.40;;;11.50;99.90;;;;;;5043547;28;20210;-79
2021/04/05 11:43:03;;;;;;;9.50;4.73;;;11.60;99.90;;;;;;5049446;28;20294;-78
2021/04/05 11:45:33;;;;;;;11.70;4.43;;;11.60;99.90;;;;;;5047602;28;20283;-78
2021/04/05 11:48:02;;;;;;;10.93;4.33;;;11.40;99.90;;;;;;5034272;28;20277;-78
2021/04/05 11:50:29;;;;;;;9.33;4.30;;;11.20;99.90;;;;;;5043992;28;20309;-78
2021/04/05 11:53:02;;;;;;;8.50;4.20;;;11.20;99.90;;;;;;5044357;28;20236;-78
2021/04/05 11:55:31;;;;;;;9.23;3.93;;;11.20;99.90;;;;;;5048255;28;20259;-79
2021/04/05 11:58:04;;;;;;;9.90;4.40;;;11.60;99.90;;;;;;5049207;28;20753;-79
2021/04/05 12:00:37;;;;;;;11.00;4.30;;;12.70;99.90;;;;;;5041205;28;20652;-79
2021/04/05 12:03:14;;;;;;;9.17;4.07;;;14.80;99.90;;;;;;5044482;28;20291;-79
2021/04/05 12:05:45;;;;;;;9.60;3.97;;;14.90;99.90;;;;;;5046983;28;20286;-79
2021/04/05 12:08:19;;;;;;;8.20;3.60;;;13.60;99.90;;;;;;5051267;28;20252;-79
2021/04/05 12:10:48;;;;;;;7.63;3.83;;;12.80;99.90;;;;;;5047842;28;20282;-79
2021/04/05 12:13:20;;;;;;;9.50;3.53;;;12.80;99.90;;;;;;5047214;28;20248;-76
2021/04/05 12:15:54;;;;;;;6.07;3.17;;;12.90;99.90;;;;;;5035625;28;20310;-79
2021/04/05 12:18:22;;;;;;;6.97;3.50;;;13.10;99.90;;;;;;5048919;28;20293;-76
2021/04/05 12:20:58;;;;;;;9.77;3.37;;;13.40;99.90;;;;;;5049765;28;20246;-79
2021/04/05 12:23:25;;;;;;;9.50;3.83;;;13.20;99.90;;;;;;5052966;28;20223;-79
2021/04/05 12:25:52;;;;;;;6.93;3.40;;;12.70;99.90;;;;;;5052054;28;20204;-77
2021/04/05 12:28:19;;;;;;;6.20;3.23;;;12.30;99.90;;;;;;5055164;28;20278;-77
2021/04/05 12:30:47;;;;;;;7.43;4.00;;;12.00;99.90;;;;;;5053523;28;20226;-78
2021/04/05 12:33:16;;;;;;;8.40;3.37;;;11.60;99.90;;;;;;5043185;28;20743;-77
2021/04/05 12:35:44;;;;;;;8.20;3.43;;;11.30;99.90;;;;;;5053984;28;20231;-78
2021/04/05 12:38:11;;;;;;;8.30;3.20;;;11.00;99.90;;;;;;5049506;28;20230;-78
2021/04/05 12:40:40;;;;;;;8.00;3.20;;;11.30;99.90;;;;;;5050578;28;20206;-78
2021/04/05 12:43:11;;;;;;;9.13;3.30;;;11.70;99.90;;;;;;5054471;28;20344;-78
2021/04/05 12:45:41;;;;;;;5.80;3.10;;;12.20;99.90;;;;;;5054203;28;20635;-78
2021/04/05 12:48:10;;;;;;;6.93;3.37;;;12.30;99.90;;;;;;5054339;28;20687;-78
2021/04/05 12:50:38;;;;;;;5.47;3.37;;;12.00;99.90;;;;;;5040604;28;20254;-77
2021/04/05 12:53:06;;;;;;;7.07;3.23;;;11.50;99.90;;;;;;5042285;28;20334;-78
2021/04/05 12:55:39;;;;;;;5.90;3.30;;;11.40;99.90;;;;;;5054955;28;20218;-78
2021/04/05 12:58:06;;;;;;;9.60;3.23;;;11.60;99.90;;;;;;5046148;28;20253;-78
2021/04/05 13:00:38;;;;;;;8.73;3.03;;;11.90;99.90;;;;;;5052966;28;20286;-78
2021/04/05 13:03:13;;;;;;;7.23;3.33;;;12.30;99.90;;;;;;5052017;28;20252;-78
2021/04/05 13:05:46;;;;;;;9.80;3.50;;;13.80;99.90;;;;;;5057705;28;20196;-78